This is the latest recevied weather packets stored in our database for station/object KC0AFB. If no packets are shown the sender has not sent any weather packets the latest 1 day(s).
| Time | Temp. | Humidity | Pressure | Rain* | Wind** | Luminosity | Snow |
|---|---|---|---|---|---|---|---|
| 1836274855 | 14.44° C | 93% | 1017.3 hPa | 0 mm | 0 m/s | 0 W/m² | - |
| 1836274553 | 14.44° C | 93% | 1017.4 hPa | 0 mm | 0.45 m/s, 40° | 0 W/m² | - |
| 1836274407 | 13.89° C | 94% | 1017.4 hPa | 0 mm | 0 m/s | 0 W/m² | - |
| 1836274252 | 14.44° C | 93% | 1017.6 hPa | 0 mm | 0.45 m/s, 12° | 0 W/m² | - |
| 1836273951 | 14.44° C | 93% | 1017.3 hPa | 0 mm | 0.45 m/s, 40° | 0 W/m² | - |
| 1778056488 | -3.33° C | 75% | 1017.6 hPa | 0 mm | 0 m/s | 0 W/m² | - |
| 1778056185 | -2.78° C | 74% | 1017.7 hPa | 0 mm | 0 m/s | 0 W/m² | - |
| 1778055882 | -2.22° C | 73% | 1017.4 hPa | 0 mm | 0.45 m/s, 20° | 0 W/m² | - |
| 1778055578 | -2.22° C | 73% | 1017.5 hPa | 0 mm | 0.45 m/s, 359° | 0 W/m² | - |
| 1778055276 | -2.22° C | 75% | 1017.6 hPa | 0 mm | 0.45 m/s, 1° | 0 W/m² | - |
| 1778054974 | -2.78° C | 74% | 1017.4 hPa | 0 mm | 0 m/s | 0 W/m² | - |
| 1778054670 | -2.22° C | 73% | 1017.4 hPa | 0 mm | 0 m/s | 0 W/m² | - |
| 1778054368 | -1.67° C | 72% | 1017.3 hPa | 0 mm | 0 m/s | 0 W/m² | - |
| 1778054066 | -1.67° C | 70% | 1017.5 hPa | 0 mm | 0 m/s | 0 W/m² | - |
| 1778053769 | -1.67° C | 70% | 1017.4 hPa | 0 mm | 0 m/s | 0 W/m² | - |
| 1778053459 | -1.11° C | 69% | 1017.4 hPa | 0 mm | 0 m/s | 0 W/m² | - |
| 1778053156 | -1.11° C | 69% | 1017.5 hPa | 0 mm | 0 m/s | 0 W/m² | - |
| 1778052855 | -1.11° C | 68% | 1017.3 hPa | 0 mm | 0 m/s | 0 W/m² | - |
| 1778052552 | -1.11° C | 67% | 1017.4 hPa | 0 mm | 0 m/s | 0 W/m² | - |
| 1778052249 | -1.11° C | 67% | 1017.6 hPa | 0 mm | 0.45 m/s, 23° | 0 W/m² | - |
| 1778051947 | -1.11° C | 68% | 1017.5 hPa | 0 mm | 0.45 m/s, 20° | 0 W/m² | - |
| 1778051645 | -1.11° C | 69% | 1017.5 hPa | 0 mm | 0.45 m/s, 15° | 0 W/m² | - |
| 1778051341 | -1.67° C | 71% | 1017.6 hPa | 0 mm | 0 m/s | 0 W/m² | - |
| 1778051038 | -1.67° C | 71% | 1017.3 hPa | 0 mm | 0 m/s | 0 W/m² | - |
| 1778050735 | -1.67° C | 71% | 1017.8 hPa | 0 mm | 0 m/s | 0 W/m² | - |
* Rain latest hour (hover to see other rain measurements)
** Current wind speed in m/s (hover to see current wind gust speed)